sensor_id;sensor_type;location;lat;lon;timestamp;P1;durP1;ratioP1;P2;durP2;ratioP2
47749;SDS011;49810;48.160;10.812;2024-02-21T00:00:54;3.45;;;1.50;;
47749;SDS011;49810;48.160;10.812;2024-02-21T00:01:55;7.05;;;1.90;;
47749;SDS011;49810;48.160;10.812;2024-02-21T00:02:59;3.53;;;1.67;;
47749;SDS011;49810;48.160;10.812;2024-02-21T00:04:03;9.48;;;2.92;;
47749;SDS011;49810;48.160;10.812;2024-02-21T00:05:06;4.78;;;1.90;;
47749;SDS011;49810;48.160;10.812;2024-02-21T00:06:09;5.95;;;1.73;;
47749;SDS011;49810;48.160;10.812;2024-02-21T00:07:11;2.78;;;1.77;;
47749;SDS011;49810;48.160;10.812;2024-02-21T00:08:14;5.97;;;2.17;;
47749;SDS011;49810;48.160;10.812;2024-02-21T00:09:17;6.45;;;1.67;;
47749;SDS011;49810;48.160;10.812;2024-02-21T00:10:21;4.50;;;1.52;;
47749;SDS011;49810;48.160;10.812;2024-02-21T00:11:24;4.03;;;1.95;;
47749;SDS011;49810;48.160;10.812;2024-02-21T00:12:26;3.63;;;2.05;;
47749;SDS011;49810;48.160;10.812;2024-02-21T00:13:29;4.80;;;1.73;;
47749;SDS011;49810;48.160;10.812;2024-02-21T00:14:31;5.88;;;1.85;;
47749;SDS011;49810;48.160;10.812;2024-02-21T00:15:34;7.20;;;2.55;;
47749;SDS011;49810;48.160;10.812;2024-02-21T00:16:35;6.65;;;1.77;;
47749;SDS011;49810;48.160;10.812;2024-02-21T00:17:38;6.55;;;2.22;;
47749;SDS011;49810;48.160;10.812;2024-02-21T00:18:41;7.72;;;1.70;;
47749;SDS011;49810;48.160;10.812;2024-02-21T00:19:44;3.13;;;2.00;;
47749;SDS011;49810;48.160;10.812;2024-02-21T00:20:46;7.90;;;1.83;;
47749;SDS011;49810;48.160;10.812;2024-02-21T00:21:48;2.70;;;1.77;;
47749;SDS011;49810;48.160;10.812;2024-02-21T00:22:50;4.38;;;2.03;;
47749;SDS011;49810;48.160;10.812;2024-02-21T00:23:52;6.53;;;2.28;;
47749;SDS011;49810;48.160;10.812;2024-02-21T00:24:56;5.75;;;2.20;;
47749;SDS011;49810;48.160;10.812;2024-02-21T00:26:00;3.90;;;2.03;;
47749;SDS011;49810;48.160;10.812;2024-02-21T00:27:03;3.85;;;1.85;;
47749;SDS011;49810;48.160;10.812;2024-02-21T00:28:05;7.70;;;1.98;;
47749;SDS011;49810;48.160;10.812;2024-02-21T00:29:08;3.40;;;1.70;;
47749;SDS011;49810;48.160;10.812;2024-02-21T00:30:10;6.72;;;2.25;;
47749;SDS011;49810;48.160;10.812;2024-02-21T00:31:13;4.28;;;1.77;;
47749;SDS011;49810;48.160;10.812;2024-02-21T00:32:15;4.30;;;1.80;;
47749;SDS011;49810;48.160;10.812;2024-02-21T00:33:18;3.33;;;1.50;;
47749;SDS011;49810;48.160;10.812;2024-02-21T00:34:20;5.80;;;1.77;;
47749;SDS011;49810;48.160;10.812;2024-02-21T00:35:22;4.90;;;2.40;;
47749;SDS011;49810;48.160;10.812;2024-02-21T00:36:25;5.70;;;2.10;;
47749;SDS011;49810;48.160;10.812;2024-02-21T00:37:27;5.75;;;1.80;;
47749;SDS011;49810;48.160;10.812;2024-02-21T00:38:30;5.28;;;1.70;;
47749;SDS011;49810;48.160;10.812;2024-02-21T00:39:32;6.30;;;2.22;;
47749;SDS011;49810;48.160;10.812;2024-02-21T00:40:36;5.10;;;1.92;;
47749;SDS011;49810;48.160;10.812;2024-02-21T00:41:38;2.90;;;1.38;;
47749;SDS011;49810;48.160;10.812;2024-02-21T00:42:41;5.97;;;1.88;;
47749;SDS011;49810;48.160;10.812;2024-02-21T00:43:43;4.03;;;1.60;;
47749;SDS011;49810;48.160;10.812;2024-02-21T00:44:45;3.25;;;1.90;;
47749;SDS011;49810;48.160;10.812;2024-02-21T00:45:47;3.78;;;2.13;;
47749;SDS011;49810;48.160;10.812;2024-02-21T00:46:50;3.50;;;1.70;;
47749;SDS011;49810;48.160;10.812;2024-02-21T00:47:54;3.35;;;1.80;;
47749;SDS011;49810;48.160;10.812;2024-02-21T00:48:57;7.20;;;2.05;;
47749;SDS011;49810;48.160;10.812;2024-02-21T00:49:59;3.53;;;1.77;;
47749;SDS011;49810;48.160;10.812;2024-02-21T00:51:02;5.75;;;1.83;;
47749;SDS011;49810;48.160;10.812;2024-02-21T00:52:04;5.10;;;2.10;;
47749;SDS011;49810;48.160;10.812;2024-02-21T00:53:06;4.95;;;1.92;;
47749;SDS011;49810;48.160;10.812;2024-02-21T00:54:08;3.20;;;1.38;;
47749;SDS011;49810;48.160;10.812;2024-02-21T00:55:11;4.38;;;2.08;;
47749;SDS011;49810;48.160;10.812;2024-02-21T00:56:15;7.60;;;1.98;;
47749;SDS011;49810;48.160;10.812;2024-02-21T00:57:18;3.22;;;1.70;;
47749;SDS011;49810;48.160;10.812;2024-02-21T00:58:20;2.97;;;1.50;;
47749;SDS011;49810;48.160;10.812;2024-02-21T00:59:23;5.97;;;1.70;;
47749;SDS011;49810;48.160;10.812;2024-02-21T01:00:25;3.42;;;1.60;;
47749;SDS011;49810;48.160;10.812;2024-02-21T01:01:27;8.50;;;2.00;;
47749;SDS011;49810;48.160;10.812;2024-02-21T01:02:29;4.93;;;2.53;;
47749;SDS011;49810;48.160;10.812;2024-02-21T01:04:35;3.58;;;1.92;;
47749;SDS011;49810;48.160;10.812;2024-02-21T01:05:38;5.85;;;1.50;;
47749;SDS011;49810;48.160;10.812;2024-02-21T01:06:40;6.25;;;1.75;;
47749;SDS011;49810;48.160;10.812;2024-02-21T01:07:45;4.38;;;2.03;;
47749;SDS011;49810;48.160;10.812;2024-02-21T01:08:47;6.40;;;2.13;;
47749;SDS011;49810;48.160;10.812;2024-02-21T01:09:50;7.35;;;2.15;;
47749;SDS011;49810;48.160;10.812;2024-02-21T01:10:52;5.78;;;1.80;;
47749;SDS011;49810;48.160;10.812;2024-02-21T01:11:56;2.50;;;1.60;;
47749;SDS011;49810;48.160;10.812;2024-02-21T01:12:58;5.30;;;2.25;;
47749;SDS011;49810;48.160;10.812;2024-02-21T01:14:01;5.10;;;1.90;;
47749;SDS011;49810;48.160;10.812;2024-02-21T01:15:03;9.20;;;3.08;;
47749;SDS011;49810;48.160;10.812;2024-02-21T01:16:06;4.90;;;2.10;;
47749;SDS011;49810;48.160;10.812;2024-02-21T01:17:08;5.43;;;2.30;;
47749;SDS011;49810;48.160;10.812;2024-02-21T01:18:11;5.05;;;2.58;;
47749;SDS011;49810;48.160;10.812;2024-02-21T01:19:13;4.97;;;2.30;;
47749;SDS011;49810;48.160;10.812;2024-02-21T01:20:16;3.72;;;1.50;;
47749;SDS011;49810;48.160;10.812;2024-02-21T01:21:18;4.65;;;2.03;;
47749;SDS011;49810;48.160;10.812;2024-02-21T01:22:21;4.10;;;1.95;;
47749;SDS011;49810;48.160;10.812;2024-02-21T01:23:23;5.88;;;1.83;;
47749;SDS011;49810;48.160;10.812;2024-02-21T01:24:26;4.07;;;2.20;;
47749;SDS011;49810;48.160;10.812;2024-02-21T01:25:27;3.58;;;1.60;;
47749;SDS011;49810;48.160;10.812;2024-02-21T01:26:30;4.50;;;2.22;;
47749;SDS011;49810;48.160;10.812;2024-02-21T01:27:33;3.63;;;1.95;;
47749;SDS011;49810;48.160;10.812;2024-02-21T01:28:36;6.30;;;3.30;;
47749;SDS011;49810;48.160;10.812;2024-02-21T01:29:39;5.03;;;2.38;;
47749;SDS011;49810;48.160;10.812;2024-02-21T01:30:41;5.68;;;2.30;;
47749;SDS011;49810;48.160;10.812;2024-02-21T01:31:43;4.75;;;2.72;;
47749;SDS011;49810;48.160;10.812;2024-02-21T01:32:46;2.55;;;1.50;;
47749;SDS011;49810;48.160;10.812;2024-02-21T01:33:48;5.32;;;2.00;;
47749;SDS011;49810;48.160;10.812;2024-02-21T01:34:51;3.25;;;1.83;;
47749;SDS011;49810;48.160;10.812;2024-02-21T01:35:53;5.95;;;2.15;;
47749;SDS011;49810;48.160;10.812;2024-02-21T01:36:56;5.15;;;1.90;;
47749;SDS011;49810;48.160;10.812;2024-02-21T01:37:57;6.80;;;2.17;;
47749;SDS011;49810;48.160;10.812;2024-02-21T01:39:00;3.40;;;1.90;;
47749;SDS011;49810;48.160;10.812;2024-02-21T01:40:02;4.93;;;1.95;;
47749;SDS011;49810;48.160;10.812;2024-02-21T01:41:05;4.70;;;2.35;;
47749;SDS011;49810;48.160;10.812;2024-02-21T01:42:07;6.60;;;2.03;;
47749;SDS011;49810;48.160;10.812;2024-02-21T01:43:21;3.88;;;1.80;;
47749;SDS011;49810;48.160;10.812;2024-02-21T01:44:23;2.60;;;1.88;;
47749;SDS011;49810;48.160;10.812;2024-02-21T01:45:25;2.38;;;1.67;;
47749;SDS011;49810;48.160;10.812;2024-02-21T01:46:27;6.43;;;1.90;;
47749;SDS011;49810;48.160;10.812;2024-02-21T01:47:32;3.85;;;1.83;;
47749;SDS011;49810;48.160;10.812;2024-02-21T01:48:34;5.85;;;2.55;;
47749;SDS011;49810;48.160;10.812;2024-02-21T01:49:38;4.70;;;1.85;;
47749;SDS011;49810;48.160;10.812;2024-02-21T01:50:40;4.35;;;1.90;;
47749;SDS011;49810;48.160;10.812;2024-02-21T01:51:43;6.10;;;2.65;;
47749;SDS011;49810;48.160;10.812;2024-02-21T01:52:46;3.72;;;2.10;;
47749;SDS011;49810;48.160;10.812;2024-02-21T01:53:49;3.42;;;1.77;;
47749;SDS011;49810;48.160;10.812;2024-02-21T01:54:52;3.05;;;1.60;;
47749;SDS011;49810;48.160;10.812;2024-02-21T01:55:55;5.43;;;2.45;;
47749;SDS011;49810;48.160;10.812;2024-02-21T01:56:57;3.75;;;1.77;;
47749;SDS011;49810;48.160;10.812;2024-02-21T01:58:00;6.57;;;1.92;;
47749;SDS011;49810;48.160;10.812;2024-02-21T01:59:03;2.97;;;1.70;;
47749;SDS011;49810;48.160;10.812;2024-02-21T02:00:06;6.43;;;2.40;;
47749;SDS011;49810;48.160;10.812;2024-02-21T02:01:11;2.72;;;1.48;;
47749;SDS011;49810;48.160;10.812;2024-02-21T02:02:15;4.95;;;1.77;;
47749;SDS011;49810;48.160;10.812;2024-02-21T02:03:18;4.88;;;1.70;;
47749;SDS011;49810;48.160;10.812;2024-02-21T02:04:20;3.03;;;2.03;;
47749;SDS011;49810;48.160;10.812;2024-02-21T02:05:23;2.17;;;1.35;;
47749;SDS011;49810;48.160;10.812;2024-02-21T02:06:25;5.80;;;1.95;;
47749;SDS011;49810;48.160;10.812;2024-02-21T02:07:28;2.90;;;1.45;;
47749;SDS011;49810;48.160;10.812;2024-02-21T02:08:30;4.68;;;1.65;;
47749;SDS011;49810;48.160;10.812;2024-02-21T02:10:35;5.35;;;1.75;;
47749;SDS011;49810;48.160;10.812;2024-02-21T02:11:38;4.65;;;1.98;;
47749;SDS011;49810;48.160;10.812;2024-02-21T02:12:41;4.22;;;1.77;;
47749;SDS011;49810;48.160;10.812;2024-02-21T02:13:43;2.13;;;1.02;;
47749;SDS011;49810;48.160;10.812;2024-02-21T02:14:47;4.40;;;1.95;;
47749;SDS011;49810;48.160;10.812;2024-02-21T02:15:59;3.00;;;1.50;;
47749;SDS011;49810;48.160;10.812;2024-02-21T02:17:02;4.05;;;1.70;;
47749;SDS011;49810;48.160;10.812;2024-02-21T02:18:04;3.88;;;1.50;;
47749;SDS011;49810;48.160;10.812;2024-02-21T02:19:07;3.42;;;1.30;;
47749;SDS011;49810;48.160;10.812;2024-02-21T02:20:14;2.67;;;1.33;;
47749;SDS011;49810;48.160;10.812;2024-02-21T02:21:20;3.22;;;2.00;;
47749;SDS011;49810;48.160;10.812;2024-02-21T02:22:27;3.13;;;1.80;;
47749;SDS011;49810;48.160;10.812;2024-02-21T02:24:37;4.00;;;1.88;;
47749;SDS011;49810;48.160;10.812;2024-02-21T02:25:39;4.05;;;1.25;;
47749;SDS011;49810;48.160;10.812;2024-02-21T02:26:42;3.30;;;1.70;;
47749;SDS011;49810;48.160;10.812;2024-02-21T02:27:44;2.97;;;1.55;;
47749;SDS011;49810;48.160;10.812;2024-02-21T02:28:47;3.90;;;1.45;;
47749;SDS011;49810;48.160;10.812;2024-02-21T02:29:49;4.20;;;1.85;;
47749;SDS011;49810;48.160;10.812;2024-02-21T02:30:52;3.65;;;1.55;;
47749;SDS011;49810;48.160;10.812;2024-02-21T02:31:54;4.00;;;1.70;;
47749;SDS011;49810;48.160;10.812;2024-02-21T02:32:57;4.60;;;1.88;;
47749;SDS011;49810;48.160;10.812;2024-02-21T02:33:59;3.10;;;1.67;;
47749;SDS011;49810;48.160;10.812;2024-02-21T02:35:02;5.90;;;1.70;;
47749;SDS011;49810;48.160;10.812;2024-02-21T02:36:04;3.75;;;1.63;;
47749;SDS011;49810;48.160;10.812;2024-02-21T02:37:07;4.13;;;1.63;;
47749;SDS011;49810;48.160;10.812;2024-02-21T02:38:09;3.65;;;1.40;;
47749;SDS011;49810;48.160;10.812;2024-02-21T02:39:13;6.38;;;1.98;;
47749;SDS011;49810;48.160;10.812;2024-02-21T02:40:16;4.28;;;1.73;;
47749;SDS011;49810;48.160;10.812;2024-02-21T02:41:19;4.63;;;1.95;;
47749;SDS011;49810;48.160;10.812;2024-02-21T02:42:21;2.92;;;1.20;;
47749;SDS011;49810;48.160;10.812;2024-02-21T02:43:24;4.07;;;1.58;;
47749;SDS011;49810;48.160;10.812;2024-02-21T02:44:26;3.63;;;1.23;;
47749;SDS011;49810;48.160;10.812;2024-02-21T02:45:29;3.78;;;1.60;;
47749;SDS011;49810;48.160;10.812;2024-02-21T02:46:31;4.10;;;1.70;;
47749;SDS011;49810;48.160;10.812;2024-02-21T02:47:34;4.13;;;1.63;;
47749;SDS011;49810;48.160;10.812;2024-02-21T02:48:36;5.40;;;1.50;;
47749;SDS011;49810;48.160;10.812;2024-02-21T02:49:40;3.50;;;1.70;;
47749;SDS011;49810;48.160;10.812;2024-02-21T02:50:42;5.18;;;1.33;;
47749;SDS011;49810;48.160;10.812;2024-02-21T02:51:45;2.85;;;1.65;;
47749;SDS011;49810;48.160;10.812;2024-02-21T02:52:47;2.63;;;1.30;;
47749;SDS011;49810;48.160;10.812;2024-02-21T02:53:49;3.25;;;1.50;;
47749;SDS011;49810;48.160;10.812;2024-02-21T02:54:52;3.13;;;1.45;;
47749;SDS011;49810;48.160;10.812;2024-02-21T02:55:58;2.25;;;1.17;;
47749;SDS011;49810;48.160;10.812;2024-02-21T02:57:01;3.67;;;1.23;;
47749;SDS011;49810;48.160;10.812;2024-02-21T02:58:05;4.00;;;1.35;;
47749;SDS011;49810;48.160;10.812;2024-02-21T02:59:07;3.08;;;1.65;;
47749;SDS011;49810;48.160;10.812;2024-02-21T03:00:10;4.25;;;1.67;;
47749;SDS011;49810;48.160;10.812;2024-02-21T03:01:13;4.95;;;1.60;;
47749;SDS011;49810;48.160;10.812;2024-02-21T03:02:15;3.03;;;1.10;;
47749;SDS011;49810;48.160;10.812;2024-02-21T03:03:18;4.15;;;1.30;;
47749;SDS011;49810;48.160;10.812;2024-02-21T03:04:20;5.15;;;1.50;;
47749;SDS011;49810;48.160;10.812;2024-02-21T03:05:23;3.92;;;1.50;;
47749;SDS011;49810;48.160;10.812;2024-02-21T03:06:25;2.08;;;1.17;;
47749;SDS011;49810;48.160;10.812;2024-02-21T03:07:28;2.60;;;1.17;;
47749;SDS011;49810;48.160;10.812;2024-02-21T03:08:30;2.65;;;1.13;;
47749;SDS011;49810;48.160;10.812;2024-02-21T03:09:35;3.10;;;1.40;;
47749;SDS011;49810;48.160;10.812;2024-02-21T03:10:36;6.38;;;1.60;;
47749;SDS011;49810;48.160;10.812;2024-02-21T03:11:41;2.85;;;1.17;;
47749;SDS011;49810;48.160;10.812;2024-02-21T03:12:44;3.90;;;1.30;;
47749;SDS011;49810;48.160;10.812;2024-02-21T03:13:48;2.70;;;1.10;;
47749;SDS011;49810;48.160;10.812;2024-02-21T03:14:50;3.28;;;1.20;;
47749;SDS011;49810;48.160;10.812;2024-02-21T03:15:53;2.47;;;1.20;;
47749;SDS011;49810;48.160;10.812;2024-02-21T03:16:54;2.65;;;1.60;;
47749;SDS011;49810;48.160;10.812;2024-02-21T03:17:57;3.83;;;1.60;;
47749;SDS011;49810;48.160;10.812;2024-02-21T03:18:59;3.35;;;1.45;;
47749;SDS011;49810;48.160;10.812;2024-02-21T03:20:02;3.28;;;1.30;;
47749;SDS011;49810;48.160;10.812;2024-02-21T03:21:07;2.30;;;1.20;;
47749;SDS011;49810;48.160;10.812;2024-02-21T03:22:10;2.42;;;1.30;;
47749;SDS011;49810;48.160;10.812;2024-02-21T03:23:11;2.90;;;1.40;;
47749;SDS011;49810;48.160;10.812;2024-02-21T03:24:14;4.70;;;1.17;;
47749;SDS011;49810;48.160;10.812;2024-02-21T03:25:16;3.83;;;1.65;;
47749;SDS011;49810;48.160;10.812;2024-02-21T03:26:21;2.65;;;1.23;;
47749;SDS011;49810;48.160;10.812;2024-02-21T03:27:24;3.42;;;1.17;;
47749;SDS011;49810;48.160;10.812;2024-02-21T03:28:27;2.65;;;1.08;;
47749;SDS011;49810;48.160;10.812;2024-02-21T03:29:29;7.10;;;1.70;;
47749;SDS011;49810;48.160;10.812;2024-02-21T03:30:32;2.50;;;1.52;;
47749;SDS011;49810;48.160;10.812;2024-02-21T03:31:35;6.05;;;1.40;;
47749;SDS011;49810;48.160;10.812;2024-02-21T03:32:38;2.40;;;1.30;;
47749;SDS011;49810;48.160;10.812;2024-02-21T03:33:41;2.28;;;1.30;;
47749;SDS011;49810;48.160;10.812;2024-02-21T03:34:44;2.05;;;1.15;;
47749;SDS011;49810;48.160;10.812;2024-02-21T03:35:46;4.70;;;1.27;;
47749;SDS011;49810;48.160;10.812;2024-02-21T03:36:49;7.97;;;2.85;;
47749;SDS011;49810;48.160;10.812;2024-02-21T03:37:51;2.50;;;1.23;;
47749;SDS011;49810;48.160;10.812;2024-02-21T03:38:54;2.97;;;1.40;;
47749;SDS011;49810;48.160;10.812;2024-02-21T03:39:55;3.53;;;1.50;;
47749;SDS011;49810;48.160;10.812;2024-02-21T03:40:58;2.58;;;1.33;;
47749;SDS011;49810;48.160;10.812;2024-02-21T03:42:00;2.08;;;1.30;;
47749;SDS011;49810;48.160;10.812;2024-02-21T03:43:07;3.78;;;1.50;;
47749;SDS011;49810;48.160;10.812;2024-02-21T03:44:09;4.05;;;1.33;;
47749;SDS011;49810;48.160;10.812;2024-02-21T03:45:12;2.28;;;1.13;;
47749;SDS011;49810;48.160;10.812;2024-02-21T03:46:14;3.40;;;1.20;;
47749;SDS011;49810;48.160;10.812;2024-02-21T03:47:16;2.25;;;1.20;;
47749;SDS011;49810;48.160;10.812;2024-02-21T03:48:18;3.95;;;1.73;;
47749;SDS011;49810;48.160;10.812;2024-02-21T03:49:22;2.67;;;1.10;;
47749;SDS011;49810;48.160;10.812;2024-02-21T03:50:24;3.17;;;1.30;;
47749;SDS011;49810;48.160;10.812;2024-02-21T03:51:29;2.35;;;1.30;;
47749;SDS011;49810;48.160;10.812;2024-02-21T03:52:31;3.20;;;1.25;;
47749;SDS011;49810;48.160;10.812;2024-02-21T03:53:34;3.13;;;1.40;;
47749;SDS011;49810;48.160;10.812;2024-02-21T03:54:36;1.85;;;1.15;;
47749;SDS011;49810;48.160;10.812;2024-02-21T03:55:39;1.73;;;1.00;;
47749;SDS011;49810;48.160;10.812;2024-02-21T03:56:41;2.90;;;1.35;;
47749;SDS011;49810;48.160;10.812;2024-02-21T03:57:43;2.55;;;1.30;;
47749;SDS011;49810;48.160;10.812;2024-02-21T03:59:03;5.40;;;1.33;;
47749;SDS011;49810;48.160;10.812;2024-02-21T04:00:06;3.38;;;1.38;;
47749;SDS011;49810;48.160;10.812;2024-02-21T04:01:14;3.78;;;1.00;;
47749;SDS011;49810;48.160;10.812;2024-02-21T04:02:18;2.83;;;0.98;;
47749;SDS011;49810;48.160;10.812;2024-02-21T04:03:19;3.15;;;1.55;;
47749;SDS011;49810;48.160;10.812;2024-02-21T04:04:22;2.85;;;1.30;;
47749;SDS011;49810;48.160;10.812;2024-02-21T04:05:24;1.70;;;1.35;;
47749;SDS011;49810;48.160;10.812;2024-02-21T04:06:27;4.75;;;1.25;;
47749;SDS011;49810;48.160;10.812;2024-02-21T04:07:29;4.32;;;1.25;;
47749;SDS011;49810;48.160;10.812;2024-02-21T04:08:32;1.92;;;1.00;;
47749;SDS011;49810;48.160;10.812;2024-02-21T04:09:34;2.63;;;1.08;;
47749;SDS011;49810;48.160;10.812;2024-02-21T04:10:37;3.80;;;1.40;;
47749;SDS011;49810;48.160;10.812;2024-02-21T04:11:39;3.35;;;1.30;;
47749;SDS011;49810;48.160;10.812;2024-02-21T04:12:41;2.63;;;1.30;;
47749;SDS011;49810;48.160;10.812;2024-02-21T04:13:43;2.30;;;1.02;;
47749;SDS011;49810;48.160;10.812;2024-02-21T04:14:47;2.40;;;1.20;;
47749;SDS011;49810;48.160;10.812;2024-02-21T04:15:49;3.42;;;1.48;;
47749;SDS011;49810;48.160;10.812;2024-02-21T04:16:52;3.80;;;1.33;;
47749;SDS011;49810;48.160;10.812;2024-02-21T04:17:54;2.65;;;1.10;;
47749;SDS011;49810;48.160;10.812;2024-02-21T04:18:57;1.92;;;0.98;;
47749;SDS011;49810;48.160;10.812;2024-02-21T04:20:01;2.08;;;1.15;;
47749;SDS011;49810;48.160;10.812;2024-02-21T04:21:07;2.38;;;1.00;;
47749;SDS011;49810;48.160;10.812;2024-02-21T04:22:08;1.63;;;1.08;;
47749;SDS011;49810;48.160;10.812;2024-02-21T04:23:12;2.65;;;1.08;;
47749;SDS011;49810;48.160;10.812;2024-02-21T04:24:13;2.42;;;1.10;;
47749;SDS011;49810;48.160;10.812;2024-02-21T04:25:16;5.25;;;1.20;;
47749;SDS011;49810;48.160;10.812;2024-02-21T04:26:18;2.70;;;1.10;;
47749;SDS011;49810;48.160;10.812;2024-02-21T04:27:21;2.65;;;1.00;;
47749;SDS011;49810;48.160;10.812;2024-02-21T04:28:23;4.03;;;1.42;;
47749;SDS011;49810;48.160;10.812;2024-02-21T04:29:25;2.13;;;1.13;;
47749;SDS011;49810;48.160;10.812;2024-02-21T04:30:30;3.17;;;1.20;;
47749;SDS011;49810;48.160;10.812;2024-02-21T04:31:32;3.60;;;1.10;;
47749;SDS011;49810;48.160;10.812;2024-02-21T04:32:36;2.97;;;1.50;;
47749;SDS011;49810;48.160;10.812;2024-02-21T04:33:38;3.10;;;1.20;;
47749;SDS011;49810;48.160;10.812;2024-02-21T04:34:41;3.10;;;1.73;;
47749;SDS011;49810;48.160;10.812;2024-02-21T04:35:43;3.72;;;1.40;;
47749;SDS011;49810;48.160;10.812;2024-02-21T04:36:45;1.88;;;1.02;;
47749;SDS011;49810;48.160;10.812;2024-02-21T04:37:48;2.35;;;1.10;;
47749;SDS011;49810;48.160;10.812;2024-02-21T04:38:50;2.65;;;1.30;;
47749;SDS011;49810;48.160;10.812;2024-02-21T04:39:53;4.78;;;1.40;;
47749;SDS011;49810;48.160;10.812;2024-02-21T04:40:55;3.33;;;1.10;;
47749;SDS011;49810;48.160;10.812;2024-02-21T04:42:00;2.83;;;1.13;;
47749;SDS011;49810;48.160;10.812;2024-02-21T04:43:02;3.03;;;1.20;;
47749;SDS011;49810;48.160;10.812;2024-02-21T04:44:04;3.25;;;1.00;;
47749;SDS011;49810;48.160;10.812;2024-02-21T04:45:07;1.85;;;1.05;;
47749;SDS011;49810;48.160;10.812;2024-02-21T04:46:11;2.03;;;1.38;;
47749;SDS011;49810;48.160;10.812;2024-02-21T04:47:13;3.33;;;1.73;;
47749;SDS011;49810;48.160;10.812;2024-02-21T04:48:16;2.75;;;1.65;;
47749;SDS011;49810;48.160;10.812;2024-02-21T04:49:17;1.85;;;1.02;;
47749;SDS011;49810;48.160;10.812;2024-02-21T04:50:20;2.85;;;1.20;;
47749;SDS011;49810;48.160;10.812;2024-02-21T04:51:22;5.40;;;1.50;;
47749;SDS011;49810;48.160;10.812;2024-02-21T04:52:25;1.50;;;1.20;;
47749;SDS011;49810;48.160;10.812;2024-02-21T04:53:27;2.20;;;1.10;;
47749;SDS011;49810;48.160;10.812;2024-02-21T04:54:30;4.20;;;1.02;;
47749;SDS011;49810;48.160;10.812;2024-02-21T04:55:32;4.35;;;1.50;;
47749;SDS011;49810;48.160;10.812;2024-02-21T04:56:35;1.17;;;0.77;;
47749;SDS011;49810;48.160;10.812;2024-02-21T04:57:37;4.47;;;1.20;;
47749;SDS011;49810;48.160;10.812;2024-02-21T04:58:40;1.38;;;1.10;;
47749;SDS011;49810;48.160;10.812;2024-02-21T04:59:42;4.15;;;1.10;;
47749;SDS011;49810;48.160;10.812;2024-02-21T05:00:45;2.65;;;1.10;;
47749;SDS011;49810;48.160;10.812;2024-02-21T05:01:48;2.20;;;1.23;;
47749;SDS011;49810;48.160;10.812;2024-02-21T05:02:51;1.63;;;1.10;;
47749;SDS011;49810;48.160;10.812;2024-02-21T05:04:11;2.83;;;0.85;;
47749;SDS011;49810;48.160;10.812;2024-02-21T05:05:15;2.28;;;1.00;;
47749;SDS011;49810;48.160;10.812;2024-02-21T05:06:18;2.95;;;1.38;;
47749;SDS011;49810;48.160;10.812;2024-02-21T05:07:21;4.40;;;1.67;;
47749;SDS011;49810;48.160;10.812;2024-02-21T05:08:23;3.47;;;1.10;;
47749;SDS011;49810;48.160;10.812;2024-02-21T05:09:26;3.03;;;1.50;;
47749;SDS011;49810;48.160;10.812;2024-02-21T05:10:28;2.33;;;1.38;;
47749;SDS011;49810;48.160;10.812;2024-02-21T05:11:30;4.13;;;1.58;;
47749;SDS011;49810;48.160;10.812;2024-02-21T05:12:33;2.85;;;1.58;;
47749;SDS011;49810;48.160;10.812;2024-02-21T05:13:34;3.25;;;1.58;;
47749;SDS011;49810;48.160;10.812;2024-02-21T05:14:37;6.90;;;2.63;;
47749;SDS011;49810;48.160;10.812;2024-02-21T05:15:39;4.80;;;1.92;;
47749;SDS011;49810;48.160;10.812;2024-02-21T05:16:42;6.45;;;1.98;;
47749;SDS011;49810;48.160;10.812;2024-02-21T05:17:45;3.65;;;1.75;;
47749;SDS011;49810;48.160;10.812;2024-02-21T05:18:48;3.15;;;1.30;;
47749;SDS011;49810;48.160;10.812;2024-02-21T05:19:50;2.85;;;1.23;;
47749;SDS011;49810;48.160;10.812;2024-02-21T05:20:53;2.00;;;1.23;;
47749;SDS011;49810;48.160;10.812;2024-02-21T05:21:55;2.30;;;1.02;;
47749;SDS011;49810;48.160;10.812;2024-02-21T05:22:58;2.17;;;0.95;;
47749;SDS011;49810;48.160;10.812;2024-02-21T05:24:00;3.78;;;1.02;;
47749;SDS011;49810;48.160;10.812;2024-02-21T05:25:03;2.95;;;1.10;;
47749;SDS011;49810;48.160;10.812;2024-02-21T05:26:05;1.88;;;1.02;;
47749;SDS011;49810;48.160;10.812;2024-02-21T05:27:08;2.08;;;0.93;;
47749;SDS011;49810;48.160;10.812;2024-02-21T05:28:10;2.08;;;1.08;;
47749;SDS011;49810;48.160;10.812;2024-02-21T05:29:13;5.20;;;1.38;;
47749;SDS011;49810;48.160;10.812;2024-02-21T05:30:14;2.33;;;0.95;;
47749;SDS011;49810;48.160;10.812;2024-02-21T05:31:17;1.42;;;1.05;;
47749;SDS011;49810;48.160;10.812;2024-02-21T05:32:20;3.83;;;0.98;;
47749;SDS011;49810;48.160;10.812;2024-02-21T05:33:23;1.70;;;0.95;;
47749;SDS011;49810;48.160;10.812;2024-02-21T05:34:26;1.75;;;1.10;;
47749;SDS011;49810;48.160;10.812;2024-02-21T05:35:28;3.13;;;0.80;;
47749;SDS011;49810;48.160;10.812;2024-02-21T05:36:31;3.45;;;1.30;;
47749;SDS011;49810;48.160;10.812;2024-02-21T05:37:33;2.60;;;1.27;;
47749;SDS011;49810;48.160;10.812;2024-02-21T05:38:37;2.70;;;0.98;;
47749;SDS011;49810;48.160;10.812;2024-02-21T05:39:38;1.30;;;0.90;;
47749;SDS011;49810;48.160;10.812;2024-02-21T05:40:44;3.47;;;1.25;;
47749;SDS011;49810;48.160;10.812;2024-02-21T05:41:46;3.40;;;1.00;;
47749;SDS011;49810;48.160;10.812;2024-02-21T05:42:50;1.98;;;0.98;;
47749;SDS011;49810;48.160;10.812;2024-02-21T05:43:53;2.45;;;1.10;;
47749;SDS011;49810;48.160;10.812;2024-02-21T05:44:57;4.20;;;1.00;;
47749;SDS011;49810;48.160;10.812;2024-02-21T05:45:58;2.05;;;1.08;;
47749;SDS011;49810;48.160;10.812;2024-02-21T05:47:01;1.92;;;1.02;;
47749;SDS011;49810;48.160;10.812;2024-02-21T05:48:03;1.98;;;1.00;;
47749;SDS011;49810;48.160;10.812;2024-02-21T05:49:08;3.15;;;1.30;;
47749;SDS011;49810;48.160;10.812;2024-02-21T05:50:10;2.20;;;1.30;;
47749;SDS011;49810;48.160;10.812;2024-02-21T05:51:13;2.92;;;1.40;;
47749;SDS011;49810;48.160;10.812;2024-02-21T05:52:15;2.03;;;1.10;;
47749;SDS011;49810;48.160;10.812;2024-02-21T05:53:18;2.25;;;1.20;;
47749;SDS011;49810;48.160;10.812;2024-02-21T05:54:20;2.85;;;1.10;;
47749;SDS011;49810;48.160;10.812;2024-02-21T05:55:23;1.85;;;1.30;;
47749;SDS011;49810;48.160;10.812;2024-02-21T05:56:25;2.15;;;0.90;;
47749;SDS011;49810;48.160;10.812;2024-02-21T05:57:27;3.08;;;1.25;;
47749;SDS011;49810;48.160;10.812;2024-02-21T05:58:29;2.22;;;1.08;;
47749;SDS011;49810;48.160;10.812;2024-02-21T05:59:33;1.50;;;1.02;;
47749;SDS011;49810;48.160;10.812;2024-02-21T06:00:35;2.22;;;1.00;;
47749;SDS011;49810;48.160;10.812;2024-02-21T06:01:38;1.50;;;0.88;;
47749;SDS011;49810;48.160;10.812;2024-02-21T06:02:40;1.95;;;1.02;;
47749;SDS011;49810;48.160;10.812;2024-02-21T06:03:43;1.40;;;0.90;;
47749;SDS011;49810;48.160;10.812;2024-02-21T06:04:46;1.92;;;1.00;;
47749;SDS011;49810;48.160;10.812;2024-02-21T06:05:49;3.33;;;1.20;;
47749;SDS011;49810;48.160;10.812;2024-02-21T06:06:51;2.80;;;1.08;;
47749;SDS011;49810;48.160;10.812;2024-02-21T06:07:54;2.60;;;1.60;;
47749;SDS011;49810;48.160;10.812;2024-02-21T06:08:55;2.80;;;1.38;;
47749;SDS011;49810;48.160;10.812;2024-02-21T06:10:01;3.22;;;1.58;;
47749;SDS011;49810;48.160;10.812;2024-02-21T06:11:03;2.88;;;1.00;;
47749;SDS011;49810;48.160;10.812;2024-02-21T06:12:06;2.35;;;1.30;;
47749;SDS011;49810;48.160;10.812;2024-02-21T06:13:08;1.80;;;1.20;;
47749;SDS011;49810;48.160;10.812;2024-02-21T06:14:11;2.08;;;1.10;;
47749;SDS011;49810;48.160;10.812;2024-02-21T06:15:13;3.63;;;1.30;;
47749;SDS011;49810;48.160;10.812;2024-02-21T06:16:16;2.42;;;0.93;;